createdAt,value
2018-04-18T00:00:50.378Z,8.33
2018-04-18T00:03:18.288Z,8.09
2018-04-18T00:05:46.015Z,8.35
2018-04-18T00:08:14.565Z,8.24
2018-04-18T00:10:42.295Z,8.34
2018-04-18T00:13:10.368Z,8.19
2018-04-18T00:15:38.610Z,8.26
2018-04-18T00:18:06.324Z,7.98
2018-04-18T00:20:34.068Z,7.93
2018-04-18T00:23:01.731Z,8.33
2018-04-18T00:25:29.610Z,8.03
2018-04-18T00:27:57.707Z,7.66
2018-04-18T00:30:25.818Z,8.03
2018-04-18T00:32:53.594Z,7.83
2018-04-18T00:35:21.539Z,8.14
2018-04-18T00:37:49.204Z,8.41
2018-04-18T00:40:17.190Z,7.87
2018-04-18T00:42:44.901Z,7.93
2018-04-18T00:45:12.574Z,8.03
2018-04-18T00:47:40.709Z,7.77
2018-04-18T00:50:09.244Z,7.87
2018-04-18T00:52:37.084Z,8.19
2018-04-18T00:55:04.768Z,8.37
2018-04-18T00:57:32.435Z,7.41
2018-04-18T01:00:00.025Z,7.22
2018-04-18T01:02:27.725Z,7.66
2018-04-18T01:04:55.411Z,8.03
2018-04-18T01:07:23.106Z,7.60
2018-04-18T01:09:50.956Z,7.21
2018-04-18T01:12:18.594Z,7.25
2018-04-18T01:14:46.339Z,7.54
2018-04-18T01:17:14.079Z,7.79
2018-04-18T01:19:41.702Z,7.17
2018-04-18T01:22:09.735Z,6.97
2018-04-18T01:24:37.615Z,7.48
2018-04-18T01:27:05.235Z,7.62
2018-04-18T01:29:32.871Z,7.53
2018-04-18T01:32:00.534Z,7.35
2018-04-18T01:34:28.155Z,7.61
2018-04-18T01:36:56.552Z,7.68
2018-04-18T01:39:24.252Z,7.60
2018-04-18T01:41:51.771Z,7.70
2018-04-18T01:44:19.399Z,7.16
2018-04-18T01:46:47.060Z,7.35
2018-04-18T01:49:22.074Z,7.26
2018-04-18T01:51:49.754Z,6.99
2018-04-18T01:54:17.435Z,7.00
2018-04-18T01:56:45.022Z,7.17
2018-04-18T01:59:13.030Z,7.34
2018-04-18T02:01:41.250Z,7.07
2018-04-18T02:04:08.890Z,6.55
2018-04-18T02:06:36.842Z,6.68
2018-04-18T02:09:05.255Z,6.94
2018-04-18T02:11:32.770Z,7.19
2018-04-18T02:14:00.537Z,6.71
2018-04-18T02:16:28.149Z,6.47
2018-04-18T02:18:55.988Z,6.68
2018-04-18T02:21:23.667Z,6.93
2018-04-18T02:23:51.461Z,6.84
2018-04-18T02:26:19.150Z,6.47
2018-04-18T02:28:46.875Z,6.88
2018-04-18T02:31:14.516Z,6.31
2018-04-18T02:33:42.185Z,6.28
2018-04-18T02:36:09.814Z,6.31
2018-04-18T02:38:37.425Z,6.34
2018-04-18T02:41:05.110Z,6.25
2018-04-18T02:43:32.742Z,6.23
2018-04-18T02:46:00.258Z,6.52
2018-04-18T02:48:27.853Z,6.73
2018-04-18T02:50:56.487Z,6.52
2018-04-18T02:53:24.813Z,6.47
2018-04-18T02:55:52.557Z,6.73
2018-04-18T02:58:20.279Z,6.90
2018-04-18T03:00:47.848Z,6.89
2018-04-18T03:03:15.444Z,7.05
2018-04-18T03:05:43.150Z,6.46
2018-04-18T03:08:10.748Z,5.92
2018-04-18T03:10:38.710Z,5.80
2018-04-18T03:13:06.328Z,6.32
2018-04-18T03:15:34.012Z,6.10
2018-04-18T03:18:01.940Z,5.75
2018-04-18T03:20:29.567Z,5.67
2018-04-18T03:22:57.462Z,6.25
2018-04-18T03:25:25.287Z,6.13
2018-04-18T03:27:53.397Z,6.24
2018-04-18T03:30:21.181Z,5.94
2018-04-18T03:32:48.784Z,5.82
2018-04-18T03:35:17.484Z,5.65
2018-04-18T03:37:45.336Z,5.57
2018-04-18T03:40:12.855Z,5.65
2018-04-18T03:42:40.476Z,5.92
2018-04-18T03:45:08.095Z,5.71
2018-04-18T03:47:35.671Z,5.88
2018-04-18T03:50:03.279Z,6.18
2018-04-18T03:52:31.175Z,5.51
2018-04-18T03:54:59.024Z,5.60
2018-04-18T03:57:27.093Z,5.65
2018-04-18T03:59:55.150Z,5.69
2018-04-18T04:02:22.769Z,5.56
2018-04-18T04:04:50.439Z,6.00
2018-04-18T04:07:19.701Z,5.82
2018-04-18T04:09:47.329Z,5.47
2018-04-18T04:12:16.060Z,5.46
2018-04-18T04:14:44.358Z,5.47
2018-04-18T04:17:23.699Z,6.12
2018-04-18T04:20:03.135Z,6.01
2018-04-18T04:22:43.201Z,5.79
2018-04-18T04:25:11.023Z,5.98
2018-04-18T04:27:38.754Z,6.25
2018-04-18T04:30:07.353Z,6.25
2018-04-18T04:32:35.083Z,6.15
2018-04-18T04:35:02.865Z,6.44
2018-04-18T04:37:30.664Z,6.43
2018-04-18T04:39:58.325Z,5.96
2018-04-18T04:42:25.970Z,5.40
2018-04-18T04:44:53.967Z,5.22
2018-04-18T04:47:22.111Z,5.63
2018-04-18T04:49:49.830Z,5.75
2018-04-18T04:52:17.803Z,5.78
2018-04-18T04:54:45.470Z,6.20
2018-04-18T04:57:13.005Z,6.65
2018-04-18T04:59:40.671Z,6.90
2018-04-18T05:02:08.416Z,6.69
2018-04-18T05:04:36.151Z,6.74
2018-04-18T05:07:03.837Z,6.79
2018-04-18T05:09:31.551Z,6.29
2018-04-18T05:12:00.181Z,6.33
2018-04-18T05:14:28.553Z,7.04
2018-04-18T05:16:56.287Z,7.53
2018-04-18T05:19:23.846Z,7.30
2018-04-18T05:21:51.611Z,7.22
2018-04-18T05:24:19.268Z,7.71
2018-04-18T05:26:47.114Z,8.38
2018-04-18T05:29:14.790Z,8.23
2018-04-18T05:31:42.482Z,8.47
2018-04-18T05:34:10.052Z,8.17
2018-04-18T05:36:37.970Z,8.21
2018-04-18T05:39:06.341Z,7.90
2018-04-18T05:41:33.927Z,8.57
2018-04-18T05:44:01.702Z,9.11
2018-04-18T05:46:29.322Z,9.11
2018-04-18T05:48:57.055Z,8.78
2018-04-18T05:51:24.866Z,9.16
2018-04-18T05:53:52.581Z,9.19
2018-04-18T05:56:20.278Z,9.50
2018-04-18T05:58:48.006Z,9.45
2018-04-18T06:01:15.847Z,9.54
2018-04-18T06:03:43.653Z,9.50
2018-04-18T06:06:12.067Z,9.76
2018-04-18T06:08:39.748Z,10.58
2018-04-18T06:11:07.397Z,11.25
2018-04-18T06:13:35.060Z,11.34
2018-04-18T06:16:02.900Z,11.06
2018-04-18T06:18:30.458Z,11.97
2018-04-18T06:20:57.962Z,12.06
2018-04-18T06:23:26.602Z,12.50
2018-04-18T06:25:54.172Z,12.13
2018-04-18T06:28:21.792Z,11.66
2018-04-18T06:30:49.501Z,12.14
2018-04-18T06:33:17.222Z,12.45
2018-04-18T06:35:45.043Z,13.01
2018-04-18T06:38:13.390Z,13.05
2018-04-18T06:40:40.991Z,12.84
2018-04-18T06:43:08.656Z,14.03
2018-04-18T06:45:36.188Z,14.36
2018-04-18T06:48:04.446Z,14.61
2018-04-18T06:50:32.072Z,15.20
2018-04-18T06:52:59.786Z,15.22
2018-04-18T06:55:27.761Z,15.79
2018-04-18T06:57:55.447Z,16.23
2018-04-18T07:00:23.127Z,15.90
2018-04-18T07:02:50.813Z,15.87
2018-04-18T07:05:18.349Z,16.62
2018-04-18T07:07:45.932Z,16.36
2018-04-18T07:10:13.622Z,16.65
2018-04-18T07:12:41.414Z,16.59
2018-04-18T07:15:09.132Z,17.73
2018-04-18T07:17:36.659Z,17.42
2018-04-18T07:20:04.230Z,17.99
2018-04-18T07:22:31.871Z,18.33
2018-04-18T07:24:59.443Z,18.79
2018-04-18T07:27:27.032Z,18.11
2018-04-18T07:29:54.951Z,18.29
2018-04-18T07:32:22.638Z,18.35
2018-04-18T07:34:50.347Z,17.71
2018-04-18T07:37:18.038Z,18.31
2018-04-18T07:39:45.979Z,18.13
2018-04-18T07:42:13.599Z,17.62
2018-04-18T07:44:41.120Z,17.14
2018-04-18T07:47:08.999Z,19.04
2018-04-18T07:49:37.602Z,19.07
2018-04-18T07:52:05.143Z,19.80
2018-04-18T07:54:33.398Z,20.85
2018-04-18T07:57:01.088Z,20.16
2018-04-18T07:59:28.654Z,19.35
2018-04-18T08:01:56.644Z,19.02
2018-04-18T08:04:24.268Z,20.38
2018-04-18T08:06:51.825Z,20.30
2018-04-18T08:09:19.363Z,20.95
2018-04-18T08:11:47.503Z,19.84
2018-04-18T08:14:15.047Z,21.02
2018-04-18T08:16:43.097Z,21.59
2018-04-18T08:19:11.108Z,21.39
2018-04-18T08:21:38.727Z,22.23
2018-04-18T08:24:06.424Z,22.95
2018-04-18T08:26:34.183Z,24.58
2018-04-18T08:29:01.858Z,24.78
2018-04-18T08:31:29.564Z,23.25
2018-04-18T08:33:57.420Z,24.76
2018-04-18T08:36:24.957Z,24.61
2018-04-18T08:38:52.570Z,24.85
2018-04-18T08:41:20.278Z,25.91
2018-04-18T08:43:47.985Z,24.61
2018-04-18T08:46:15.755Z,24.90
2018-04-18T08:48:43.334Z,25.04
2018-04-18T08:51:10.912Z,27.05
2018-04-18T08:53:38.549Z,27.36
2018-04-18T08:56:06.083Z,25.66
2018-04-18T08:58:33.704Z,26.05
2018-04-18T09:01:01.399Z,25.14
2018-04-18T09:03:29.064Z,24.38
2018-04-18T09:05:56.742Z,25.43
2018-04-18T09:08:24.591Z,25.66
2018-04-18T09:10:52.139Z,26.53
2018-04-18T09:13:19.741Z,26.57
2018-04-18T09:15:47.829Z,28.42
2018-04-18T09:18:16.038Z,27.46
2018-04-18T09:20:43.583Z,27.92
2018-04-18T09:23:11.370Z,28.79
2018-04-18T09:25:39.108Z,28.83
2018-04-18T09:28:07.071Z,27.48
2018-04-18T09:30:34.665Z,27.43
2018-04-18T09:33:02.241Z,29.93
2018-04-18T09:35:30.003Z,28.38
2018-04-18T09:37:57.707Z,27.61
2018-04-18T09:40:25.377Z,28.07
2018-04-18T09:42:53.925Z,29.01
2018-04-18T09:45:21.803Z,29.24
2018-04-18T09:47:49.331Z,29.04
2018-04-18T09:50:17.334Z,29.05
2018-04-18T09:52:45.270Z,29.58
2018-04-18T09:55:12.858Z,30.32
2018-04-18T09:57:40.502Z,30.81
2018-04-18T10:00:08.026Z,28.35
2018-04-18T10:02:37.593Z,28.52
2018-04-18T10:05:08.633Z,28.40
2018-04-18T10:07:36.327Z,29.09
2018-04-18T10:10:03.973Z,29.27
2018-04-18T10:12:31.565Z,27.97
2018-04-18T10:14:59.412Z,31.06
2018-04-18T10:17:26.953Z,30.19
2018-04-18T10:19:54.719Z,31.60
2018-04-18T10:22:22.593Z,33.24
2018-04-18T10:24:50.138Z,31.53
2018-04-18T10:27:17.734Z,30.19
2018-04-18T10:29:45.260Z,28.84
2018-04-18T10:32:12.883Z,28.24
2018-04-18T10:34:40.533Z,27.82
2018-04-18T10:37:08.306Z,28.02
2018-04-18T10:39:36.174Z,29.20
2018-04-18T10:42:03.919Z,28.72
2018-04-18T10:44:31.850Z,28.79
2018-04-18T10:46:59.542Z,29.13
2018-04-18T10:49:27.577Z,30.81
2018-04-18T10:51:55.298Z,31.10
2018-04-18T10:54:22.913Z,31.65
2018-04-18T10:56:50.706Z,31.32
2018-04-18T10:59:18.296Z,32.11
2018-04-18T11:01:46.012Z,33.30
2018-04-18T11:04:13.628Z,31.85
2018-04-18T11:06:41.270Z,31.42
2018-04-18T11:09:09.045Z,33.00
2018-04-18T11:11:36.580Z,31.64
2018-04-18T11:14:04.125Z,30.61
2018-04-18T11:16:31.713Z,30.70
2018-04-18T11:18:59.602Z,31.43
2018-04-18T11:21:27.194Z,31.98
2018-04-18T11:23:54.804Z,31.50
2018-04-18T11:26:22.334Z,31.32
2018-04-18T11:28:49.876Z,30.39
2018-04-18T11:31:17.640Z,31.86
2018-04-18T11:33:45.298Z,31.32
2018-04-18T11:36:13.280Z,31.53
2018-04-18T11:38:40.994Z,30.05
2018-04-18T11:41:08.668Z,31.69
2018-04-18T11:43:36.326Z,30.93
2018-04-18T11:46:03.960Z,31.09
2018-04-18T11:48:31.495Z,32.11
2018-04-18T11:50:59.265Z,31.45
2018-04-18T11:53:27.054Z,29.15
2018-04-18T11:55:55.543Z,29.89
2018-04-18T11:58:23.111Z,30.98
2018-04-18T12:00:50.931Z,32.33
2018-04-18T12:03:18.598Z,32.84
2018-04-18T12:05:46.283Z,32.54
2018-04-18T12:08:14.037Z,30.57
2018-04-18T12:10:41.820Z,29.28
2018-04-18T12:13:09.394Z,29.13
2018-04-18T12:15:36.934Z,31.12
2018-04-18T12:18:04.716Z,30.59
2018-04-18T12:20:32.279Z,30.16
2018-04-18T12:22:59.900Z,30.35
2018-04-18T12:25:27.809Z,30.24
2018-04-18T12:27:55.451Z,30.63
2018-04-18T12:30:23.027Z,32.16
2018-04-18T12:32:51.471Z,32.21
2018-04-18T12:35:19.085Z,33.06
2018-04-18T12:37:46.880Z,31.20
2018-04-18T12:40:15.218Z,31.16
2018-04-18T12:42:42.945Z,30.58
2018-04-18T12:45:10.576Z,29.77
2018-04-18T12:47:38.333Z,30.41
2018-04-18T12:50:06.839Z,32.08
2018-04-18T12:52:34.457Z,31.73
2018-04-18T12:55:02.119Z,31.11
2018-04-18T12:57:29.855Z,31.06
2018-04-18T12:59:57.411Z,32.55
2018-04-18T13:02:25.131Z,30.65
2018-04-18T13:04:52.758Z,30.92
2018-04-18T13:07:20.292Z,31.65
2018-04-18T13:09:48.159Z,30.06
2018-04-18T13:12:15.772Z,29.59
2018-04-18T13:14:43.309Z,30.28
2018-04-18T13:17:10.898Z,30.54
2018-04-18T13:19:38.638Z,29.20
2018-04-18T13:22:06.310Z,28.13
2018-04-18T13:24:34.923Z,28.36
2018-04-18T13:27:02.499Z,29.47
2018-04-18T13:29:30.206Z,28.50
2018-04-18T13:31:57.796Z,28.80
2018-04-18T13:34:25.374Z,29.45
2018-04-18T13:36:53.022Z,30.25
2018-04-18T13:39:20.604Z,29.37
2018-04-18T13:41:48.181Z,29.06
2018-04-18T13:44:15.866Z,28.87
2018-04-18T13:46:43.475Z,28.55
2018-04-18T13:49:11.018Z,28.39
2018-04-18T13:51:38.543Z,28.42
2018-04-18T13:54:06.152Z,27.97
2018-04-18T13:56:34.103Z,28.72
2018-04-18T13:59:02.096Z,28.76
2018-04-18T14:01:29.857Z,27.65
2018-04-18T14:03:57.587Z,27.36
2018-04-18T14:06:25.297Z,27.09
2018-04-18T14:08:52.826Z,26.87
2018-04-18T14:11:20.698Z,26.49
2018-04-18T14:13:48.242Z,26.30
2018-04-18T14:16:15.835Z,25.52
2018-04-18T14:18:43.618Z,25.37
2018-04-18T14:21:11.328Z,25.60
2018-04-18T14:23:39.078Z,25.58
2018-04-18T14:26:06.610Z,25.41
2018-04-18T14:28:34.215Z,25.25
2018-04-18T14:31:02.461Z,24.92
2018-04-18T14:33:30.134Z,24.98
2018-04-18T14:35:58.530Z,25.09
2018-04-18T14:38:26.228Z,25.05
2018-04-18T14:40:53.816Z,25.12
2018-04-18T14:43:21.433Z,24.83
2018-04-18T14:45:49.180Z,24.93
2018-04-18T14:48:16.941Z,24.67
2018-04-18T14:50:44.474Z,24.53
2018-04-18T14:53:12.275Z,24.55
2018-04-18T14:55:40.685Z,24.52
2018-04-18T14:58:08.590Z,24.54
2018-04-18T15:00:37.025Z,24.43
2018-04-18T15:03:04.654Z,24.61
2018-04-18T15:05:32.311Z,24.46
2018-04-18T15:07:59.873Z,24.56
2018-04-18T15:10:27.628Z,24.32
2018-04-18T15:12:55.274Z,24.28
2018-04-18T15:15:22.818Z,24.28
2018-04-18T15:17:50.357Z,24.26
2018-04-18T15:20:18.029Z,24.16
2018-04-18T15:22:45.801Z,24.14
2018-04-18T15:25:13.395Z,24.12
2018-04-18T15:27:40.989Z,24.33
2018-04-18T15:30:08.650Z,24.27
2018-04-18T15:32:36.312Z,24.10
2018-04-18T15:35:03.844Z,24.01
2018-04-18T15:37:31.534Z,24.03
2018-04-18T15:39:59.121Z,23.88
2018-04-18T15:42:26.865Z,23.94
2018-04-18T15:44:55.386Z,23.96
2018-04-18T15:47:23.009Z,23.91
2018-04-18T15:49:50.686Z,23.94
2018-04-18T15:52:18.389Z,23.96
2018-04-18T15:54:46.140Z,23.93
2018-04-18T15:57:13.840Z,23.82
2018-04-18T15:59:42.438Z,23.73
2018-04-18T16:02:10.256Z,23.73
2018-04-18T16:04:37.876Z,23.78
2018-04-18T16:07:05.861Z,23.71
2018-04-18T16:09:33.437Z,23.60
2018-04-18T16:12:01.062Z,23.69
2018-04-18T16:14:29.316Z,23.54
2018-04-18T16:16:56.861Z,23.49
2018-04-18T16:19:24.522Z,23.50
2018-04-18T16:21:52.056Z,23.46
2018-04-18T16:24:19.856Z,23.45
2018-04-18T16:26:47.560Z,23.47
2018-04-18T16:29:27.028Z,23.34
2018-04-18T16:31:55.076Z,23.41
2018-04-18T16:34:22.696Z,23.32
2018-04-18T16:36:50.302Z,23.29
2018-04-18T16:39:17.848Z,23.30
2018-04-18T16:41:45.571Z,23.16
2018-04-18T16:44:13.100Z,23.22
2018-04-18T16:46:40.904Z,23.17
2018-04-18T16:49:08.712Z,23.23
2018-04-18T16:51:36.260Z,23.16
2018-04-18T16:54:04.006Z,23.03
2018-04-18T16:56:31.760Z,22.96
2018-04-18T16:58:59.387Z,23.08
2018-04-18T17:01:27.262Z,22.92
2018-04-18T17:03:54.825Z,22.81
2018-04-18T17:06:22.392Z,22.66
2018-04-18T17:08:49.926Z,22.66
2018-04-18T17:11:17.731Z,22.71
2018-04-18T17:13:45.617Z,22.64
2018-04-18T17:16:13.156Z,22.53
2018-04-18T17:18:40.742Z,22.54
2018-04-18T17:21:08.438Z,22.47
2018-04-18T17:23:36.021Z,22.36
2018-04-18T17:26:03.545Z,22.33
2018-04-18T17:28:31.092Z,22.21
2018-04-18T17:30:58.752Z,22.14
2018-04-18T17:33:26.425Z,21.97
2018-04-18T17:35:54.155Z,21.96
2018-04-18T17:38:21.677Z,21.99
2018-04-18T17:40:49.201Z,21.92
2018-04-18T17:43:16.812Z,21.98
2018-04-18T17:45:44.622Z,21.70
2018-04-18T17:48:12.148Z,21.67
2018-04-18T17:50:39.903Z,21.54
2018-04-18T17:53:07.452Z,21.52
2018-04-18T17:55:35.031Z,21.32
2018-04-18T17:58:02.945Z,21.24
2018-04-18T18:00:30.776Z,21.19
2018-04-18T18:02:58.340Z,21.12
2018-04-18T18:05:26.041Z,20.87
2018-04-18T18:07:54.519Z,20.76
2018-04-18T18:10:22.062Z,20.40
2018-04-18T18:12:49.694Z,20.18
2018-04-18T18:15:17.230Z,20.18
2018-04-18T18:17:45.442Z,19.70
2018-04-18T18:20:13.037Z,19.59
2018-04-18T18:22:40.761Z,19.61
2018-04-18T18:25:08.626Z,19.67
2018-04-18T18:27:36.327Z,19.68
2018-04-18T18:30:03.913Z,19.40
2018-04-18T18:32:31.637Z,18.88
2018-04-18T18:34:59.321Z,18.46
2018-04-18T18:37:27.076Z,18.14
2018-04-18T18:39:54.686Z,18.14
2018-04-18T18:42:22.300Z,17.60
2018-04-18T18:44:50.125Z,17.39
2018-04-18T18:47:17.716Z,16.62
2018-04-18T18:49:45.341Z,16.16
2018-04-18T18:52:13.106Z,16.38
2018-04-18T18:54:41.102Z,16.39
2018-04-18T18:57:08.896Z,16.05
2018-04-18T18:59:36.517Z,15.97
2018-04-18T19:02:04.392Z,15.49
2018-04-18T19:04:32.196Z,15.10
2018-04-18T19:07:00.224Z,14.95
2018-04-18T19:09:27.787Z,15.15
2018-04-18T19:11:55.474Z,15.06
2018-04-18T19:14:23.018Z,15.14
2018-04-18T19:16:50.691Z,14.58
2018-04-18T19:19:18.241Z,14.30
2018-04-18T19:21:45.850Z,14.28
2018-04-18T19:24:13.491Z,14.44
2018-04-18T19:26:41.115Z,14.13
2018-04-18T19:29:08.776Z,14.04
2018-04-18T19:31:36.339Z,14.03
2018-04-18T19:34:04.021Z,13.93
2018-04-18T19:36:31.588Z,14.05
2018-04-18T19:38:59.807Z,13.71
2018-04-18T19:41:27.622Z,13.58
2018-04-18T19:43:55.694Z,13.06
2018-04-18T19:46:23.813Z,13.21
2018-04-18T19:48:51.596Z,13.46
2018-04-18T19:51:19.398Z,13.59
2018-04-18T19:53:47.356Z,13.48
2018-04-18T19:56:14.988Z,13.28
2018-04-18T19:58:42.576Z,12.83
2018-04-18T20:01:10.441Z,12.81
2018-04-18T20:03:38.074Z,13.00
2018-04-18T20:06:05.788Z,12.83
2018-04-18T20:08:33.337Z,12.58
2018-04-18T20:11:01.120Z,12.77
2018-04-18T20:13:28.707Z,12.75
2018-04-18T20:15:56.303Z,12.44
2018-04-18T20:18:24.138Z,12.43
2018-04-18T20:20:51.678Z,12.41
2018-04-18T20:23:19.302Z,12.60
2018-04-18T20:25:46.897Z,12.27
2018-04-18T20:28:14.489Z,12.61
2018-04-18T20:30:42.132Z,12.49
2018-04-18T20:33:09.697Z,12.40
2018-04-18T20:35:37.263Z,12.58
2018-04-18T20:38:04.948Z,12.52
2018-04-18T20:40:33.842Z,12.71
2018-04-18T20:43:01.484Z,12.29
2018-04-18T20:45:29.201Z,12.24
2018-04-18T20:47:56.781Z,12.40
2018-04-18T20:50:25.111Z,11.78
2018-04-18T20:52:52.718Z,11.77
2018-04-18T20:55:20.278Z,11.80
2018-04-18T20:57:48.003Z,11.67
2018-04-18T21:00:15.726Z,11.36
2018-04-18T21:02:43.373Z,11.31
2018-04-18T21:05:11.059Z,11.06
2018-04-18T21:07:38.642Z,11.12
2018-04-18T21:10:06.405Z,11.06
2018-04-18T21:12:33.960Z,10.78
2018-04-18T21:15:01.724Z,11.08
2018-04-18T21:17:29.276Z,11.12
2018-04-18T21:19:56.842Z,11.14
2018-04-18T21:22:24.444Z,10.78
2018-04-18T21:24:52.966Z,10.82
2018-04-18T21:27:20.504Z,10.99
2018-04-18T21:29:48.041Z,10.56
2018-04-18T21:32:15.703Z,10.69
2018-04-18T21:34:43.346Z,10.38
2018-04-18T21:37:11.048Z,10.50
2018-04-18T21:39:38.704Z,10.57
2018-04-18T21:42:06.228Z,10.31
2018-04-18T21:44:34.162Z,10.25
2018-04-18T21:47:01.697Z,10.42
2018-04-18T21:49:29.414Z,10.08
2018-04-18T21:52:10.627Z,10.19
2018-04-18T21:54:38.611Z,10.33
2018-04-18T21:57:06.181Z,10.52
2018-04-18T21:59:34.081Z,10.49
2018-04-18T22:02:01.687Z,10.34
2018-04-18T22:04:29.230Z,10.55
2018-04-18T22:06:57.218Z,10.28
2018-04-18T22:09:24.774Z,10.29
2018-04-18T22:12:27.593Z,10.14
2018-04-18T22:14:55.455Z,10.12
2018-04-18T22:17:23.136Z,10.13
2018-04-18T22:19:50.897Z,10.25
2018-04-18T22:22:18.448Z,10.09
2018-04-18T22:24:46.182Z,9.99
2018-04-18T22:27:14.496Z,9.54
2018-04-18T22:29:42.773Z,9.44
2018-04-18T22:32:10.406Z,9.48
2018-04-18T22:34:39.391Z,9.51
2018-04-18T22:37:07.431Z,9.62
2018-04-18T22:39:34.970Z,9.44
2018-04-18T22:42:02.641Z,9.24
2018-04-18T22:44:30.197Z,9.52
2018-04-18T22:46:57.716Z,9.37
2018-04-18T22:49:25.695Z,9.43
2018-04-18T22:51:53.352Z,9.33
2018-04-18T22:54:21.068Z,9.33
2018-04-18T22:56:48.722Z,9.36
2018-04-18T22:59:16.378Z,9.24
2018-04-18T23:01:44.066Z,9.67
2018-04-18T23:04:12.528Z,9.21
2018-04-18T23:06:40.308Z,9.46
2018-04-18T23:09:08.727Z,9.21
2018-04-18T23:11:36.247Z,9.20
2018-04-18T23:14:04.093Z,9.26
2018-04-18T23:16:32.313Z,9.23
2018-04-18T23:19:00.878Z,9.11
2018-04-18T23:21:28.483Z,9.41
2018-04-18T23:23:56.138Z,9.08
2018-04-18T23:26:23.763Z,9.14
2018-04-18T23:28:51.346Z,8.98
2018-04-18T23:31:19.790Z,9.17
2018-04-18T23:33:47.446Z,9.04
2018-04-18T23:36:15.157Z,8.93
2018-04-18T23:38:42.833Z,9.09
2018-04-18T23:41:11.114Z,9.10
2018-04-18T23:43:38.831Z,9.02
2018-04-18T23:46:07.606Z,8.92
2018-04-18T23:48:35.477Z,9.08
2018-04-18T23:51:03.208Z,8.98
2018-04-18T23:53:30.903Z,8.84
2018-04-18T23:55:58.661Z,8.85
2018-04-18T23:58:26.778Z,8.83
